Terminal Aerodrome Forecast
Issued by NWS

Current Version | Previous Version | Text Only | Print | Product List | Glossary On
Versions: 1 2 3 4 5 6 7 8 9 10 11 12 13 14
000
FTPQ31 PGUM 261720
TAFGUM
TAF

TAF
PGSN 261720Z 2618/2718 VRB03KT P6SM VCSH FEW018 SCT040 BKN120
     FM270100 07007KT P6SM VCSH FEW018 BKN120=

USA.gov is the U.S. government's official web portal to all federal, state and local government web resources and services.